Time;durP1;ratioP1;P1;durP2;ratioP2;P2;SDS_P1;SDS_P2;PMS_P1;PMS_P2;Temp;Humidity;BMP_temperature;BMP_pressure;BME280_temperature;BME280_humidity;BME280_pressure;Samples;Min_cycle;Max_cycle;Signal;HPM_P1;HPM_P2
2021/01/17 00:00:36;;;;;;;1.90;1.80;;;;;;;21.29;36.72;100982.38;6307791;22;20186;-66
2021/01/17 00:03:02;;;;;;;2.17;2.07;;;;;;;21.30;36.70;100972.34;6308167;22;20146;-62
2021/01/17 00:05:31;;;;;;;2.00;1.90;;;;;;;21.34;36.42;100973.69;6228991;22;20686;-63
2021/01/17 00:07:57;;;;;;;2.33;2.20;;;;;;;21.34;36.49;100971.81;6279909;22;20151;-63
2021/01/17 00:10:28;;;;;;;2.03;1.93;;;;;;;21.38;36.52;100969.56;6306788;22;20217;-63
2021/01/17 00:12:54;;;;;;;2.10;2.00;;;;;;;21.39;36.73;100965.81;6254126;22;20194;-63
2021/01/17 00:15:21;;;;;;;2.13;2.03;;;;;;;21.41;36.49;100972.78;6279930;22;20162;-62
2021/01/17 00:17:47;;;;;;;1.93;1.83;;;;;;;21.44;36.61;100972.41;6279949;22;20158;-62
2021/01/17 00:20:15;;;;;;;2.40;2.20;;;;;;;21.46;36.40;100969.50;6254452;22;20174;-62
2021/01/17 00:22:41;;;;;;;2.10;2.00;;;;;;;21.47;36.52;100965.75;6254810;22;20143;-62
2021/01/17 00:25:09;;;;;;;2.30;2.10;;;;;;;21.48;36.29;100962.00;6229115;22;20173;-62
2021/01/17 00:27:35;;;;;;;2.30;2.20;;;;;;;21.47;36.18;100965.75;6254489;22;20583;-62
2021/01/17 00:30:05;;;;;;;1.93;1.83;;;;;;;21.47;36.15;100957.56;6306107;22;20182;-63
2021/01/17 00:32:31;;;;;;;2.70;2.50;;;;;;;21.45;36.34;100956.91;6306914;22;20178;-63
2021/01/17 00:34:58;;;;;;;2.43;2.23;;;;;;;21.43;35.99;100946.19;6253565;22;20163;-65
2021/01/17 00:37:24;;;;;;;2.47;2.30;;;;;;;21.43;36.12;100950.81;6279674;22;20184;-62
2021/01/17 00:39:50;;;;;;;2.20;2.10;;;;;;;21.40;36.04;100957.47;6306464;22;20216;-62
2021/01/17 00:42:16;;;;;;;2.10;2.00;;;;;;;21.38;35.92;100956.78;6279764;22;20166;-65
2021/01/17 00:44:43;;;;;;;2.30;2.20;;;;;;;21.36;36.13;100958.00;6306578;22;20162;-65
2021/01/17 00:47:15;;;;;;;2.40;2.20;;;;;;;21.37;36.11;100956.97;6306376;22;20159;-66
2021/01/17 00:49:44;;;;;;;2.10;2.00;;;;;;;21.35;35.88;100962.59;6306483;22;20221;-66
2021/01/17 00:52:20;;;;;;;2.30;2.20;;;;;;;21.35;36.02;100948.16;6280705;22;20189;-66
2021/01/17 00:54:46;;;;;;;2.30;2.20;;;;;;;21.31;36.01;100944.94;6279938;22;20168;-62
2021/01/17 00:57:13;;;;;;;2.10;2.00;;;;;;;21.28;36.23;100938.97;6280167;22;20151;-69
2021/01/17 00:59:39;;;;;;;2.30;2.10;;;;;;;21.26;36.25;100941.03;6307346;22;20190;-68
2021/01/17 01:02:05;;;;;;;2.10;2.00;;;;;;;21.26;36.37;100949.22;6281656;22;20181;-66
2021/01/17 01:04:32;;;;;;;2.13;2.03;;;;;;;21.26;36.39;100951.94;6282006;22;20257;-66
2021/01/17 01:06:58;;;;;;;2.40;2.30;;;;;;;21.27;36.31;100948.19;6281979;22;20165;-66
2021/01/17 01:09:24;;;;;;;2.17;2.07;;;;;;;21.28;36.54;100948.00;6308477;22;20481;-65
2021/01/17 01:11:50;;;;;;;2.10;2.00;;;;;;;21.29;36.57;100941.53;6281457;22;20173;-67
2021/01/17 01:14:16;;;;;;;2.17;2.07;;;;;;;21.31;36.65;100936.78;6308308;22;20232;-68
2021/01/17 01:16:49;;;;;;;2.00;1.90;;;;;;;21.36;36.59;100941.66;6308425;22;20196;-68
2021/01/17 01:19:15;;;;;;;2.10;2.00;;;;;;;21.37;36.75;100946.09;6281676;22;20179;-68
2021/01/17 01:21:41;;;;;;;2.27;2.17;;;;;;;21.39;36.56;100944.88;6256175;22;20466;-63
2021/01/17 01:24:08;;;;;;;1.80;1.70;;;;;;;21.41;36.60;100945.53;6256217;22;20164;-64
2021/01/17 01:26:41;;;;;;;2.20;2.10;;;;;;;21.45;36.73;100940.56;6281673;22;20163;-64
2021/01/17 01:29:07;;;;;;;2.40;2.30;;;;;;;21.47;36.48;100938.50;6255512;22;20193;-63
2021/01/17 01:31:34;;;;;;;2.10;2.00;;;;;;;21.49;36.61;100935.59;6281267;22;20169;-63
2021/01/17 01:34:00;;;;;;;2.20;2.10;;;;;;;21.51;36.33;100933.53;6281533;22;20193;-62
2021/01/17 01:36:30;;;;;;;2.20;2.10;;;;;;;21.53;36.30;100936.94;6308561;22;20173;-63
2021/01/17 01:38:56;;;;;;;2.10;2.00;;;;;;;21.52;36.50;100933.34;6256339;22;20204;-64
2021/01/17 01:41:30;;;;;;;2.10;2.00;;;;;;;21.53;36.07;100932.34;6255801;22;20182;-64
2021/01/17 01:43:56;;;;;;;2.30;2.20;;;;;;;21.51;36.32;100934.38;6308329;22;20169;-64
2021/01/17 01:46:23;;;;;;;2.30;2.20;;;;;;;21.49;36.00;100933.72;6281425;22;20172;-64
2021/01/17 01:48:49;;;;;;;2.20;2.10;;;;;;;21.46;36.07;100931.38;6255889;22;20565;-68
2021/01/17 01:51:17;;;;;;;2.60;2.40;;;;;;;21.45;36.22;100935.13;6256022;22;20564;-63
2021/01/17 01:53:43;;;;;;;2.57;2.37;;;;;;;21.39;35.96;100930.41;6255799;22;20235;-63
2021/01/17 01:56:09;;;;;;;2.10;2.00;;;;;;;21.35;36.11;100923.63;6281407;22;20166;-67
2021/01/17 01:58:37;;;;;;;2.53;2.33;;;;;;;21.34;35.82;100932.84;6281277;22;20151;-67
2021/01/17 02:01:04;;;;;;;2.50;2.30;;;;;;;21.34;36.15;100930.13;6255378;22;20182;-63
2021/01/17 02:03:30;;;;;;;1.90;1.80;;;;;;;21.33;36.10;100932.00;6230414;22;20162;-67
2021/01/17 02:05:56;;;;;;;2.03;1.93;;;;;;;21.33;36.09;100923.81;6307979;22;20219;-69
2021/01/17 02:08:46;;;;;;;2.00;1.90;;;;;;;21.34;36.24;100921.94;6281187;22;20464;-63
2021/01/17 02:11:50;;;;;;;2.10;2.00;;;;;;;21.32;35.99;100926.72;6308034;22;20142;-65
2021/01/17 02:14:16;;;;;;;2.20;2.10;;;;;;;21.30;36.34;100934.22;6281177;22;20209;-66
2021/01/17 02:16:43;;;;;;;2.30;2.20;;;;;;;21.30;36.44;100926.06;6307914;22;20525;-66
2021/01/17 02:19:09;;;;;;;2.20;2.10;;;;;;;21.31;36.49;100935.94;6256123;22;20269;-65
2021/01/17 02:21:37;;;;;;;2.07;1.97;;;;;;;21.31;36.43;100930.47;6308306;22;20146;-69
2021/01/17 02:24:12;;;;;;;2.10;2.00;;;;;;;21.34;36.39;100919.22;6281609;22;20284;-68
2021/01/17 02:26:43;;;;;;;1.60;1.50;;;;;;;21.37;36.34;100927.03;6308007;22;20424;-64
2021/01/17 02:29:10;;;;;;;2.20;2.10;;;;;;;21.36;36.43;100920.72;6307302;22;20182;-68
2021/01/17 02:31:36;;;;;;;2.10;2.00;;;;;;;21.40;36.61;100921.22;6255649;22;20177;-68
2021/01/17 02:34:03;;;;;;;2.07;1.97;;;;;;;21.42;36.53;100914.56;6229784;22;20194;-68
2021/01/17 02:36:34;;;;;;;2.20;2.10;;;;;;;;;;6230015;22;20209;-63
2021/01/17 02:39:21;;;;;;;2.00;1.90;;;;;;;21.48;36.31;100915.69;6280850;22;20220;-63
2021/01/17 02:42:03;;;;;;;1.93;1.83;;;;;;;21.49;36.14;100909.22;6280769;22;20237;-68
2021/01/17 02:44:33;;;;;;;2.20;2.10;;;;;;;21.49;36.06;100911.09;6255444;22;20531;-64
2021/01/17 02:47:00;;;;;;;1.93;1.83;;;;;;;21.47;36.05;100911.28;6281853;22;20151;-64
2021/01/17 02:49:26;;;;;;;2.10;2.00;;;;;;;21.44;36.26;100907.03;6307914;22;20222;-67
2021/01/17 02:51:52;;;;;;;2.27;2.17;;;;;;;21.43;36.26;100904.50;6307909;22;20155;-65
2021/01/17 02:54:25;;;;;;;2.30;2.20;;;;;;;21.42;36.20;100900.09;6307685;22;20182;-66
2021/01/17 02:57:04;;;;;;;2.17;2.00;;;;;;;21.39;36.21;100898.59;6256067;22;20454;-66
2021/01/17 02:59:54;;;;;;;2.00;1.90;;;;;;;21.39;36.16;100904.03;6282585;22;20261;-68
2021/01/17 03:02:28;;;;;;;2.20;2.10;;;;;;;21.40;36.11;100907.59;6280816;22;20177;-68
2021/01/17 03:04:59;;;;;;;2.00;1.90;;;;;;;21.39;35.86;100904.03;6307815;22;20592;-68
2021/01/17 03:07:27;;;;;;;2.03;1.93;;;;;;;21.38;35.87;100904.22;6280608;22;20150;-65
2021/01/17 03:09:53;;;;;;;2.07;1.97;;;;;;;21.36;35.79;100907.13;6280323;22;20666;-65
2021/01/17 03:12:19;;;;;;;2.50;2.30;;;;;;;21.35;35.90;100907.31;6280252;22;20172;-66
2021/01/17 03:14:45;;;;;;;2.10;2.00;;;;;;;21.33;36.11;100903.91;6307393;22;20185;-68
2021/01/17 03:17:11;;;;;;;1.90;1.80;;;;;;;21.33;36.28;100906.63;6280865;22;20356;-68
2021/01/17 03:19:37;;;;;;;2.10;1.90;;;;;;;21.32;36.36;100902.22;6307454;22;20174;-63
2021/01/17 03:22:03;;;;;;;2.00;1.90;;;;;;;21.33;36.19;100895.75;6306927;22;20241;-62
2021/01/17 03:24:30;;;;;;;1.90;1.80;;;;;;;21.33;36.26;100893.88;6307344;22;20169;-62
2021/01/17 03:26:56;;;;;;;1.90;1.80;;;;;;;21.36;36.31;100898.94;6280487;22;20572;-62
2021/01/17 03:29:22;;;;;;;1.93;1.83;;;;;;;21.37;36.58;100899.78;6279773;22;20204;-63
2021/01/17 03:31:48;;;;;;;2.13;2.03;;;;;;;21.39;36.64;100898.59;6280198;22;20169;-63
2021/01/17 03:34:14;;;;;;;1.90;1.80;;;;;;;21.40;36.43;100902.16;6307252;22;20246;-66
2021/01/17 03:36:40;;;;;;;2.00;1.90;;;;;;;21.42;36.17;100913.72;6307242;22;20344;-63
2021/01/17 03:39:06;;;;;;;2.23;2.13;;;;;;;21.44;36.18;100903.47;6307074;22;20213;-63
2021/01/17 03:41:32;;;;;;;2.00;1.90;;;;;;;21.45;36.35;100902.44;6280518;22;20158;-62
2021/01/17 03:43:58;;;;;;;2.50;2.30;;;;;;;21.47;36.16;100894.94;6280643;22;20158;-62
2021/01/17 03:46:27;;;;;;;2.13;2.03;;;;;;;;;;6280293;22;20166;-62
2021/01/17 03:48:56;;;;;;;2.00;1.90;;;;;;;21.44;36.11;100884.41;6306960;22;20162;-63
2021/01/17 03:51:22;;;;;;;2.20;2.10;;;;;;;21.43;36.23;100894.47;6306989;22;20161;-63
2021/01/17 03:53:49;;;;;;;2.10;2.00;;;;;;;21.42;36.12;100897.38;6306926;22;20539;-62
2021/01/17 03:56:15;;;;;;;2.10;2.00;;;;;;;21.39;36.24;100897.72;6254849;22;20150;-63
2021/01/17 03:58:41;;;;;;;2.20;2.00;;;;;;;21.36;35.97;100892.66;6306712;22;20162;-63
2021/01/17 04:01:07;;;;;;;1.90;1.80;;;;;;;21.33;36.11;100893.88;6307462;22;20154;-63
2021/01/17 04:03:33;;;;;;;2.17;2.07;;;;;;;21.31;36.19;100893.22;6307770;22;20158;-64
2021/01/17 04:05:59;;;;;;;2.10;2.00;;;;;;;21.30;35.83;100888.78;6307567;22;20576;-63
2021/01/17 04:08:25;;;;;;;2.30;2.20;;;;;;;21.31;35.95;100895.94;6307117;22;20154;-63
2021/01/17 04:10:51;;;;;;;2.00;1.90;;;;;;;21.31;36.03;100889.63;6307011;22;20653;-62
2021/01/17 04:13:17;;;;;;;2.10;2.00;;;;;;;21.29;35.88;100888.94;6279848;22;20186;-63
2021/01/17 04:15:43;;;;;;;2.20;2.10;;;;;;;21.29;36.00;100891.66;6306906;22;20525;-63
2021/01/17 04:18:10;;;;;;;2.40;2.20;;;;;;;21.28;35.96;100890.81;6280062;22;20162;-65
2021/01/17 04:20:36;;;;;;;2.10;2.00;;;;;;;21.29;36.01;100891.66;6306646;22;20227;-65
2021/01/17 04:23:04;;;;;;;1.90;1.80;;;;;;;21.30;36.14;100893.38;6307051;22;20185;-62
2021/01/17 04:25:30;;;;;;;1.87;1.77;;;;;;;21.32;36.27;100896.78;6280205;22;20192;-63
2021/01/17 04:27:57;;;;;;;2.20;2.10;;;;;;;21.33;36.41;100895.75;6279834;22;20158;-63
2021/01/17 04:30:26;;;;;;;2.20;2.10;;;;;;;21.34;36.60;100894.72;6306086;22;20265;-63
2021/01/17 04:32:53;;;;;;;2.10;2.00;;;;;;;21.36;36.47;100895.38;6306475;22;20197;-63
2021/01/17 04:35:19;;;;;;;2.00;1.90;;;;;;;21.37;36.62;100900.63;6306519;22;20158;-67
2021/01/17 04:37:45;;;;;;;1.90;1.80;;;;;;;21.39;36.34;100898.59;6254466;22;20178;-67
2021/01/17 04:40:11;;;;;;;2.30;2.10;;;;;;;21.41;36.50;100901.13;6306571;22;20630;-65
2021/01/17 04:42:40;;;;;;;2.13;1.97;;;;;;;21.42;36.33;100903.66;6306541;22;20158;-66
2021/01/17 04:45:08;;;;;;;1.90;1.80;;;;;;;21.45;36.22;100905.16;6280659;22;20142;-65
2021/01/17 04:47:35;;;;;;;2.10;2.00;;;;;;;21.45;36.22;100905.16;6280341;22;20258;-62
2021/01/17 04:50:08;;;;;;;1.90;1.80;;;;;;;21.46;36.17;100898.69;6280298;22;20319;-62
2021/01/17 04:52:42;;;;;;;2.17;2.07;;;;;;;21.47;36.29;100889.50;6279742;22;20178;-63
2021/01/17 04:55:11;;;;;;;1.90;1.80;;;;;;;;;;6306734;22;20155;-65
2021/01/17 04:57:51;;;;;;;2.10;2.00;;;;;;;21.46;36.10;100898.69;6279815;22;20511;-66
2021/01/17 05:00:48;;;;;;;1.93;1.83;;;;;;;21.44;36.01;100898.03;6253608;22;20190;-65
2021/01/17 05:03:36;;;;;;;2.37;2.20;;;;;;;21.41;35.80;100895.69;6277511;22;20258;-63
2021/01/17 05:06:27;;;;;;;2.23;2.03;;;;;;;21.38;35.98;100899.63;6282570;22;20154;-66
2021/01/17 05:09:02;;;;;;;2.20;2.00;;;;;;;21.35;35.87;100896.41;6253983;22;20433;-66
2021/01/17 05:11:32;;;;;;;2.10;2.00;;;;;;;21.34;36.09;100895.56;6279388;22;20158;-68
2021/01/17 05:14:13;;;;;;;2.17;2.07;;;;;;;21.34;35.87;100900.16;6306203;22;20186;-68
2021/01/17 05:16:43;;;;;;;2.07;1.97;;;;;;;21.32;35.84;100897.63;6306530;22;20492;-67
2021/01/17 05:19:17;;;;;;;2.07;1.97;;;;;;;21.31;36.09;100895.09;6280423;22;20243;-67
2021/01/17 05:21:47;;;;;;;2.20;2.10;;;;;;;21.30;35.93;100898.84;6306516;22;20599;-68
2021/01/17 05:24:14;;;;;;;2.03;1.93;;;;;;;21.28;36.06;100903.59;6254317;22;20154;-66
2021/01/17 05:27:00;;;;;;;1.93;1.83;;;;;;;21.30;36.27;100904.28;6306611;22;20151;-64
2021/01/17 05:29:30;;;;;;;2.00;1.90;;;;;;;21.30;36.20;100896.13;6306060;22;20235;-63
2021/01/17 05:31:58;;;;;;;2.13;2.00;;;;;;;21.29;36.29;100902.56;6306556;22;20163;-64
2021/01/17 05:34:24;;;;;;;2.10;2.00;;;;;;;21.29;36.20;100900.69;6306664;22;20481;-65
2021/01/17 05:37:03;;;;;;;2.07;1.90;;;;;;;21.32;36.27;100904.94;6306406;22;20179;-62
2021/01/17 05:39:30;;;;;;;2.00;1.90;;;;;;;21.32;36.37;100896.78;6253686;22;20186;-64
2021/01/17 05:42:06;;;;;;;1.93;1.83;;;;;;;21.34;36.55;100889.28;6306371;22;20177;-66
2021/01/17 05:44:32;;;;;;;1.90;1.80;;;;;;;21.35;36.67;100897.25;6306641;22;20158;-65
2021/01/17 05:47:22;;;;;;;2.10;2.00;;;;;;;21.40;36.29;100899.44;6308539;22;20146;-66
2021/01/17 05:49:51;;;;;;;2.07;1.97;;;;;;;21.42;36.33;100900.94;6263279;22;20266;-66
2021/01/17 05:52:19;;;;;;;1.93;1.83;;;;;;;21.44;36.55;100900.75;6308229;22;20504;-62
2021/01/17 05:54:49;;;;;;;1.90;1.80;;;;;;;21.46;36.46;100909.59;6255973;22;20617;-62
2021/01/17 05:57:16;;;;;;;1.90;1.80;;;;;;;21.47;36.50;100905.81;6255825;22;20180;-62
2021/01/17 05:59:42;;;;;;;2.20;2.00;;;;;;;21.47;36.29;100911.28;6255406;22;20198;-62
2021/01/17 06:02:16;;;;;;;2.10;2.00;;;;;;;21.49;36.14;100914.66;6256057;22;20150;-62
2021/01/17 06:04:43;;;;;;;1.90;1.80;;;;;;;21.45;36.05;100918.78;6281241;22;20165;-66
2021/01/17 06:07:09;;;;;;;1.70;1.60;;;;;;;21.43;36.12;100908.06;6281287;22;20249;-65
2021/01/17 06:09:37;;;;;;;1.97;1.87;;;;;;;21.42;35.96;100919.16;6308060;22;20198;-65
2021/01/17 06:12:03;;;;;;;2.17;2.07;;;;;;;21.37;36.02;100916.13;6307907;22;20592;-66
2021/01/17 06:14:29;;;;;;;1.87;1.77;;;;;;;21.36;36.15;100914.44;6308374;22;20290;-65
2021/01/17 06:16:59;;;;;;;2.43;2.23;;;;;;;21.35;35.81;100912.75;6308450;22;20161;-63
2021/01/17 06:19:37;;;;;;;2.10;2.00;;;;;;;21.35;35.81;100918.19;6281192;22;20218;-63
2021/01/17 06:22:07;;;;;;;1.87;1.77;;;;;;;21.34;36.04;100911.91;6307922;22;20150;-64
2021/01/17 06:24:38;;;;;;;2.00;1.90;;;;;;;21.34;35.85;100911.06;6307807;22;20192;-62
2021/01/17 06:27:05;;;;;;;2.10;2.00;;;;;;;21.33;36.36;100909.38;6255428;22;20246;-62
2021/01/17 06:29:35;;;;;;;2.10;2.00;;;;;;;21.33;36.08;100910.22;6229649;22;20247;-62
2021/01/17 06:32:15;;;;;;;2.33;2.23;;;;;;;21.31;36.01;100904.09;6255660;22;20170;-62
2021/01/17 06:34:55;;;;;;;2.00;1.90;;;;;;;21.31;36.18;100906.81;6230310;22;20196;-62
2021/01/17 06:37:22;;;;;;;2.03;1.93;;;;;;;21.30;36.26;100915.19;6281908;22;20546;-62
2021/01/17 06:39:56;;;;;;;2.10;2.00;;;;;;;21.31;36.45;100912.28;6281099;22;20178;-67
2021/01/17 06:42:22;;;;;;;1.80;1.70;;;;;;;21.30;36.40;100916.03;6280909;22;20552;-62
2021/01/17 06:44:50;;;;;;;1.93;1.83;;;;;;;21.32;36.47;100921.28;6255626;22;20166;-62
2021/01/17 06:47:21;;;;;;;1.90;1.80;;;;;;;21.34;36.60;100922.78;6307764;22;20162;-66
2021/01/17 06:49:48;;;;;;;1.80;1.70;;;;;;;21.35;36.59;100920.91;6307641;22;20174;-66
2021/01/17 06:52:16;;;;;;;1.83;1.73;;;;;;;21.37;36.67;100921.59;6307703;22;20265;-65
2021/01/17 06:54:49;;;;;;;2.00;1.90;;;;;;;21.40;36.55;100927.50;6307894;22;20170;-65
2021/01/17 06:57:15;;;;;;;2.10;2.00;;;;;;;21.41;36.28;100922.91;6307118;22;20162;-66
2021/01/17 06:59:48;;;;;;;1.93;1.80;;;;;;;21.44;36.22;100930.72;6306906;22;20182;-65
2021/01/17 07:02:16;;;;;;;1.93;1.83;;;;;;;21.43;36.29;100931.75;6307408;22;20480;-66
2021/01/17 07:05:21;;;;;;;2.00;1.90;;;;;;;21.47;36.39;100933.06;6307370;22;20460;-67
2021/01/17 07:08:21;;;;;;;2.00;1.80;;;;;;;21.46;35.84;100934.09;6153028;23;20169;-62
2021/01/17 07:10:50;;;;;;;2.10;2.00;;;;;;;21.43;35.86;100938.03;6152962;23;20196;-62
2021/01/17 07:13:17;;;;;;;2.00;1.90;;;;;;;21.40;35.93;100949.28;6263232;22;20198;-62
2021/01/17 07:15:43;;;;;;;1.80;1.70;;;;;;;21.38;36.17;100948.63;6280835;22;20232;-62
2021/01/17 07:18:11;;;;;;;2.20;2.10;;;;;;;21.34;35.88;100960.06;6229730;22;20166;-62
2021/01/17 07:20:41;;;;;;;2.20;2.10;;;;;;;21.30;35.94;100958.75;6280709;22;20593;-62
2021/01/17 07:23:08;;;;;;;2.30;2.20;;;;;;;21.28;36.04;100955.31;6280436;22;20223;-62
2021/01/17 07:25:36;;;;;;;2.10;2.00;;;;;;;21.28;35.91;100956.16;6280905;22;20169;-66
2021/01/17 07:28:12;;;;;;;1.87;1.77;;;;;;;21.29;36.12;100952.41;6255300;22;20169;-68
2021/01/17 07:30:46;;;;;;;1.90;1.80;;;;;;;21.30;35.86;100967.75;6307234;22;20178;-63
2021/01/17 07:33:14;;;;;;;1.90;1.80;;;;;;;21.28;36.10;100971.66;6307041;22;20174;-63
2021/01/17 07:35:47;;;;;;;2.10;2.00;;;;;;;21.25;36.50;100982.91;6307139;22;20170;-64
2021/01/17 07:38:23;;;;;;;2.00;1.90;;;;;;;21.25;36.12;100972.88;6307088;22;20154;-65
2021/01/17 07:40:55;;;;;;;1.70;1.60;;;;;;;21.25;36.33;100972.03;6280290;22;20173;-65
2021/01/17 07:43:43;;;;;;;1.80;1.70;;;;;;;21.26;36.49;100980.00;6307114;22;20154;-64
2021/01/17 07:46:16;;;;;;;2.03;1.93;;;;;;;21.29;36.37;100976.06;6307219;22;20143;-63
2021/01/17 07:48:43;;;;;;;1.70;1.60;;;;;;;21.28;36.34;100985.28;6254896;22;20149;-62
2021/01/17 07:51:13;;;;;;;1.87;1.77;;;;;;;21.32;36.62;100983.91;6280428;22;20241;-66
2021/01/17 07:53:39;;;;;;;2.10;2.00;;;;;;;21.33;36.32;100996.50;6280249;22;20190;-67
2021/01/17 07:56:09;;;;;;;1.90;1.80;;;;;;;21.35;36.69;100989.84;6307107;22;20182;-65
2021/01/17 07:58:46;;;;;;;1.90;1.80;;;;;;;21.38;36.51;100994.91;6280858;22;20621;-65
2021/01/17 08:01:31;;;;;;;1.80;1.70;;;;;;;21.42;36.35;100995.41;6306878;22;20165;-63
2021/01/17 08:04:18;;;;;;;1.90;1.80;;;;;;;21.43;36.45;101008.84;6306953;22;20155;-62
2021/01/17 08:06:46;;;;;;;1.90;1.80;;;;;;;21.43;36.28;101006.13;6255186;22;20232;-62
2021/01/17 08:09:13;;;;;;;1.97;1.87;;;;;;;21.48;36.32;101021.06;6279847;22;20450;-62
2021/01/17 08:11:49;;;;;;;2.03;1.93;;;;;;;21.49;36.16;101012.72;6254704;22;20159;-62
2021/01/17 08:14:29;;;;;;;2.00;1.90;;;;;;;21.48;35.91;101011.03;6280138;22;20181;-62
2021/01/17 08:17:14;;;;;;;1.80;1.70;;;;;;;21.46;36.18;101004.91;6255540;22;20157;-64
2021/01/17 08:19:53;;;;;;;1.90;1.80;;;;;;;21.43;36.34;101008.84;6306737;22;20189;-65
2021/01/17 08:22:22;;;;;;;2.20;2.10;;;;;;;21.39;36.02;101007.50;6279704;22;20233;-62
2021/01/17 08:24:54;;;;;;;1.90;1.80;;;;;;;21.36;36.24;101012.47;6306737;22;20154;-62
2021/01/17 08:27:30;;;;;;;2.00;1.90;;;;;;;21.35;36.14;101022.53;6281352;22;20142;-62
2021/01/17 08:30:02;;;;;;;1.80;1.70;;;;;;;21.33;36.01;101026.44;6306407;22;20204;-62
2021/01/17 08:32:38;;;;;;;1.73;1.63;;;;;;;21.33;35.94;101040.06;6306839;22;20170;-63
2021/01/17 08:35:25;;;;;;;1.87;1.77;;;;;;;21.33;35.96;101045.50;6306974;22;20166;-63
2021/01/17 08:37:53;;;;;;;2.10;1.90;;;;;;;21.32;35.79;101050.09;6306605;22;20630;-63
2021/01/17 08:40:28;;;;;;;1.83;1.73;;;;;;;21.31;36.10;101044.84;6306585;22;20174;-63
2021/01/17 08:43:07;;;;;;;1.70;1.60;;;;;;;21.29;36.05;101049.59;6306847;22;20178;-65
2021/01/17 08:45:35;;;;;;;1.83;1.73;;;;;;;21.28;35.82;101059.63;6306778;22;20607;-74
2021/01/17 08:48:19;;;;;;;10.27;9.37;;;;;;;21.25;32.21;101060.00;6307046;22;20459;-71
2021/01/17 08:50:45;;;;;;;10.83;9.83;;;;;;;21.10;31.44;101056.31;6306523;22;20185;-69
2021/01/17 08:53:14;;;;;;;11.37;10.33;;;;;;;20.90;31.29;101050.41;6306066;22;20239;-69
2021/01/17 08:56:01;;;;;;;11.43;10.33;;;;;;;20.69;31.08;101067.31;6306363;22;20233;-62
2021/01/17 08:58:27;;;;;;;10.47;9.43;;;;;;;20.43;32.41;101062.06;6284517;22;20166;-62
2021/01/17 09:00:53;;;;;;;8.87;8.07;;;;;;;20.27;32.81;101064.78;6305908;22;20224;-66
2021/01/17 09:03:42;;;;;;;8.07;7.37;;;;;;;20.22;33.43;101067.16;6306475;22;20591;-62
2021/01/17 09:06:11;;;;;;;7.80;7.00;;;;;;;20.18;33.52;101071.25;6286835;22;20173;-63
2021/01/17 09:08:39;;;;;;;6.90;6.20;;;;;;;20.15;33.91;101071.59;6306513;22;20196;-67
2021/01/17 09:11:24;;;;;;;7.03;6.33;;;;;;;20.16;34.27;101070.56;6229638;22;20166;-64
2021/01/17 09:14:09;;;;;;;6.40;5.80;;;;;;;20.15;34.50;101074.31;6283606;22;20192;-67
2021/01/17 09:16:42;;;;;;;5.70;5.20;;;;;;;20.19;34.44;101081.09;6258275;22;20154;-66
2021/01/17 09:19:08;;;;;;;4.90;4.50;;;;;;;20.20;34.84;101082.78;6281188;22;20178;-67
2021/01/17 09:21:34;;;;;;;5.00;4.60;;;;;;;20.23;34.85;101085.16;6281738;22;20181;-68
2021/01/17 09:24:07;;;;;;;5.50;4.37;;;;;;;20.27;34.76;101091.94;6230964;22;20163;-67
2021/01/17 09:26:33;;;;;;;4.70;4.30;;;;;;;20.29;34.95;101092.63;6282766;22;20557;-63
2021/01/17 09:28:59;;;;;;;4.00;3.60;;;;;;;20.32;35.31;101095.00;6308254;22;20492;-67
2021/01/17 09:31:27;;;;;;;3.70;3.40;;;;;;;20.38;35.51;101093.50;6281316;22;20186;-67
2021/01/17 09:33:54;;;;;;;4.13;3.77;;;;;;;20.42;35.41;101105.75;6308546;22;20193;-67
2021/01/17 09:36:24;;;;;;;3.97;3.57;;;;;;;20.47;35.45;101109.66;6280919;22;20846;-67
2021/01/17 09:38:50;;;;;;;3.90;3.50;;;;;;;20.48;35.50;101113.22;6308374;22;20158;-67
2021/01/17 09:41:23;;;;;;;3.37;3.07;;;;;;;20.54;35.46;101121.53;6308381;22;20158;-67
2021/01/17 09:43:50;;;;;;;3.60;3.30;;;;;;;20.58;35.77;101115.75;6308365;22;20150;-67
2021/01/17 09:46:19;;;;;;;4.40;3.13;;;;;;;20.64;35.63;101117.81;6308608;22;20166;-68
2021/01/17 09:48:53;;;;;;;3.10;2.80;;;;;;;20.66;35.73;101124.78;6308047;22;20586;-66
2021/01/17 09:51:19;;;;;;;3.30;3.10;;;;;;;20.71;35.82;101126.97;6283223;22;20233;-68
2021/01/17 09:53:45;;;;;;;4.07;2.90;;;;;;;20.76;35.99;101127.31;6255947;22;20247;-68
2021/01/17 09:56:11;;;;;;;3.97;3.00;;;;;;;20.81;35.82;101130.34;6255998;22;20154;-67
2021/01/17 09:58:37;;;;;;;3.63;2.93;;;;;;;20.85;36.11;101129.00;6308197;22;20241;-66
2021/01/17 10:01:04;;;;;;;3.60;2.90;;;;;;;20.90;35.98;101139.38;6255455;22;20484;-67
2021/01/17 10:03:30;;;;;;;3.80;2.93;;;;;;;20.93;36.04;101139.00;6308373;22;20166;-68
2021/01/17 10:05:56;;;;;;;3.47;2.90;;;;;;;20.97;36.16;101137.63;6281195;22;20158;-68
2021/01/17 10:08:22;;;;;;;3.07;2.77;;;;;;;21.02;36.02;101146.97;6308107;22;20241;-67
2021/01/17 10:10:48;;;;;;;2.77;2.57;;;;;;;21.05;35.97;101143.91;6255579;22;20615;-66
2021/01/17 10:13:14;;;;;;;2.70;2.50;;;;;;;21.09;36.12;101142.56;6307790;22;20190;-68
2021/01/17 10:15:40;;;;;;;2.57;2.37;;;;;;;21.13;36.13;101149.34;6281099;22;20643;-67
2021/01/17 10:18:07;;;;;;;2.50;2.30;;;;;;;21.20;36.02;101154.09;6281119;22;20165;-67
2021/01/17 10:20:35;;;;;;;2.47;2.27;;;;;;;21.22;36.07;101152.88;6280704;22;20264;-67
2021/01/17 10:23:25;;;;;;;2.60;2.40;;;;;;;21.27;35.79;101155.09;6307904;22;20495;-68
2021/01/17 10:25:51;;;;;;;2.60;2.40;;;;;;;21.31;36.09;101156.47;6307502;22;20177;-67
2021/01/17 10:28:17;;;;;;;2.47;2.27;;;;;;;21.35;36.08;101163.28;6307729;22;20432;-67
2021/01/17 10:30:43;;;;;;;2.53;2.33;;;;;;;21.36;36.12;101160.38;6307628;22;20241;-67
2021/01/17 10:33:09;;;;;;;2.57;2.30;;;;;;;21.39;36.11;101165.47;6308018;22;20189;-67
2021/01/17 10:35:42;;;;;;;2.60;2.40;;;;;;;21.43;35.80;101166.81;6307864;22;20262;-68
2021/01/17 10:38:09;;;;;;;2.50;2.30;;;;;;;21.47;35.93;101172.75;6307915;22;20226;-68
2021/01/17 10:40:35;;;;;;;3.17;2.20;;;;;;;21.50;35.86;101171.53;6307792;22;20687;-68
2021/01/17 10:43:03;;;;;;;2.23;2.10;;;;;;;21.54;35.83;101178.34;6307806;22;20186;-67
2021/01/17 10:45:29;;;;;;;2.17;2.07;;;;;;;21.54;35.59;101175.63;6281358;22;20248;-68
2021/01/17 10:48:02;;;;;;;2.67;2.23;;;;;;;21.55;35.65;101171.88;6255416;22;20576;-68
2021/01/17 10:50:28;;;;;;;2.03;1.93;;;;;;;21.55;35.93;101169.16;6280648;22;20208;-68
2021/01/17 10:52:54;;;;;;;2.70;2.50;;;;;;;21.56;35.74;101171.69;6280675;22;20595;-67
2021/01/17 10:55:20;;;;;;;3.53;2.70;;;;;;;21.56;35.88;101174.44;6307450;22;20242;-66
2021/01/17 10:57:47;;;;;;;2.90;2.60;;;;;;;21.56;35.91;101174.44;6307615;22;20155;-67
2021/01/17 11:00:14;;;;;;;3.03;2.60;;;;;;;21.55;35.88;101172.72;6254789;22;20186;-67
2021/01/17 11:02:40;;;;;;;2.93;2.70;;;;;;;21.55;35.82;101186.34;6307633;22;20165;-66
2021/01/17 11:05:06;;;;;;;4.40;2.60;;;;;;;21.54;35.76;101178.34;6307474;22;20155;-67
2021/01/17 11:07:32;;;;;;;2.67;2.47;;;;;;;21.54;35.80;101184.66;6307498;22;20154;-66
2021/01/17 11:09:58;;;;;;;2.73;2.50;;;;;;;21.53;35.83;101177.50;6307579;22;20217;-67
2021/01/17 11:12:38;;;;;;;6.53;2.90;;;;;;;21.52;35.77;101181.22;6307381;22;20475;-67
2021/01/17 11:15:13;;;;;;;3.07;2.40;;;;;;;21.51;35.71;101178.69;6307882;22;20169;-67
2021/01/17 11:17:40;;;;;;;3.23;2.40;;;;;;;21.48;35.75;101179.88;6280585;22;20219;-67
2021/01/17 11:20:09;;;;;;;3.40;2.53;;;;;;;21.45;35.67;101172.06;6280923;22;20177;-67
2021/01/17 11:22:36;;;;;;;3.27;2.40;;;;;;;21.45;35.80;101172.06;6307274;22;20470;-67
2021/01/17 11:25:03;;;;;;;2.67;2.47;;;;;;;21.44;35.91;101167.66;6229638;22;20173;-67
2021/01/17 11:27:36;;;;;;;2.50;2.30;;;;;;;21.44;35.66;101184.84;6307302;22;20166;-67
2021/01/17 11:30:05;;;;;;;2.67;2.30;;;;;;;21.40;35.85;101183.50;6307040;22;20204;-67
2021/01/17 11:32:33;;;;;;;3.17;2.40;;;;;;;21.40;35.88;101185.38;6280078;22;20632;-68
2021/01/17 11:34:59;;;;;;;2.50;2.30;;;;;;;21.37;35.70;101185.72;6307069;22;20161;-67
2021/01/17 11:37:37;;;;;;;2.57;2.20;;;;;;;21.39;35.88;101189.13;6306617;22;20487;-67
2021/01/17 11:40:08;;;;;;;3.00;2.67;;;;;;;21.36;35.97;101193.03;6229753;22;20750;-67